sensor_id;sensor_type;location;lat;lon;timestamp;P1;durP1;ratioP1;P2;durP2;ratioP2
9536;SDS011;4807;48.024;11.726;2023-07-24T00:01:19;7.13;;;4.70;;
9536;SDS011;4807;48.024;11.726;2023-07-24T00:04:29;8.83;;;5.13;;
9536;SDS011;4807;48.024;11.726;2023-07-24T00:07:38;7.23;;;4.90;;
9536;SDS011;4807;48.024;11.726;2023-07-24T00:10:48;5.03;;;4.07;;
9536;SDS011;4807;48.024;11.726;2023-07-24T00:13:57;7.17;;;5.23;;
9536;SDS011;4807;48.024;11.726;2023-07-24T00:17:05;6.23;;;4.43;;
9536;SDS011;4807;48.024;11.726;2023-07-24T00:20:14;5.20;;;4.07;;
9536;SDS011;4807;48.024;11.726;2023-07-24T00:23:23;6.03;;;4.47;;
9536;SDS011;4807;48.024;11.726;2023-07-24T00:26:33;6.20;;;4.90;;
9536;SDS011;4807;48.024;11.726;2023-07-24T00:29:42;6.10;;;4.60;;
9536;SDS011;4807;48.024;11.726;2023-07-24T00:32:50;8.07;;;4.90;;
9536;SDS011;4807;48.024;11.726;2023-07-24T00:36:01;6.40;;;5.10;;
9536;SDS011;4807;48.024;11.726;2023-07-24T00:39:10;5.67;;;4.40;;
9536;SDS011;4807;48.024;11.726;2023-07-24T00:42:23;6.77;;;4.37;;
9536;SDS011;4807;48.024;11.726;2023-07-24T00:45:32;6.10;;;4.33;;
9536;SDS011;4807;48.024;11.726;2023-07-24T00:48:41;6.00;;;4.60;;
9536;SDS011;4807;48.024;11.726;2023-07-24T00:51:50;5.57;;;4.33;;
9536;SDS011;4807;48.024;11.726;2023-07-24T00:55:00;8.43;;;4.37;;
9536;SDS011;4807;48.024;11.726;2023-07-24T00:58:10;6.03;;;4.13;;
9536;SDS011;4807;48.024;11.726;2023-07-24T01:01:19;5.40;;;4.50;;
9536;SDS011;4807;48.024;11.726;2023-07-24T01:04:29;7.10;;;4.57;;
9536;SDS011;4807;48.024;11.726;2023-07-24T01:07:38;5.67;;;4.23;;
9536;SDS011;4807;48.024;11.726;2023-07-24T01:10:49;6.63;;;4.93;;
9536;SDS011;4807;48.024;11.726;2023-07-24T01:14:00;5.53;;;4.60;;
9536;SDS011;4807;48.024;11.726;2023-07-24T01:17:18;5.33;;;4.03;;
9536;SDS011;4807;48.024;11.726;2023-07-24T01:20:32;7.03;;;4.33;;
9536;SDS011;4807;48.024;11.726;2023-07-24T01:23:50;7.93;;;4.60;;
9536;SDS011;4807;48.024;11.726;2023-07-24T01:27:08;7.30;;;5.03;;
9536;SDS011;4807;48.024;11.726;2023-07-24T01:30:17;5.13;;;4.17;;
9536;SDS011;4807;48.024;11.726;2023-07-24T01:33:26;5.87;;;4.50;;
9536;SDS011;4807;48.024;11.726;2023-07-24T01:36:38;5.70;;;4.33;;
9536;SDS011;4807;48.024;11.726;2023-07-24T01:39:47;5.83;;;4.10;;
9536;SDS011;4807;48.024;11.726;2023-07-24T01:42:58;7.97;;;4.77;;
9536;SDS011;4807;48.024;11.726;2023-07-24T01:46:07;6.10;;;4.40;;
9536;SDS011;4807;48.024;11.726;2023-07-24T01:49:16;6.67;;;4.50;;
9536;SDS011;4807;48.024;11.726;2023-07-24T01:52:25;5.87;;;4.03;;
9536;SDS011;4807;48.024;11.726;2023-07-24T01:55:33;5.50;;;4.53;;
9536;SDS011;4807;48.024;11.726;2023-07-24T01:58:43;6.47;;;4.77;;
9536;SDS011;4807;48.024;11.726;2023-07-24T02:01:52;5.87;;;4.83;;
9536;SDS011;4807;48.024;11.726;2023-07-24T02:05:01;6.40;;;4.57;;
9536;SDS011;4807;48.024;11.726;2023-07-24T02:08:09;5.87;;;4.90;;
9536;SDS011;4807;48.024;11.726;2023-07-24T02:11:18;5.87;;;4.47;;
9536;SDS011;4807;48.024;11.726;2023-07-24T02:14:29;5.57;;;4.17;;
9536;SDS011;4807;48.024;11.726;2023-07-24T02:17:38;5.37;;;4.30;;
9536;SDS011;4807;48.024;11.726;2023-07-24T02:20:49;5.97;;;4.40;;
9536;SDS011;4807;48.024;11.726;2023-07-24T02:23:59;6.77;;;4.50;;
9536;SDS011;4807;48.024;11.726;2023-07-24T02:27:11;6.73;;;4.97;;
9536;SDS011;4807;48.024;11.726;2023-07-24T02:30:22;5.23;;;4.37;;
9536;SDS011;4807;48.024;11.726;2023-07-24T02:33:31;5.40;;;4.50;;
9536;SDS011;4807;48.024;11.726;2023-07-24T02:36:39;5.90;;;4.40;;
9536;SDS011;4807;48.024;11.726;2023-07-24T02:39:48;7.20;;;5.00;;
9536;SDS011;4807;48.024;11.726;2023-07-24T02:42:59;7.50;;;4.83;;
9536;SDS011;4807;48.024;11.726;2023-07-24T02:46:09;5.83;;;4.70;;
9536;SDS011;4807;48.024;11.726;2023-07-24T02:49:18;6.33;;;4.80;;
9536;SDS011;4807;48.024;11.726;2023-07-24T02:52:29;6.57;;;4.80;;
9536;SDS011;4807;48.024;11.726;2023-07-24T02:55:41;6.37;;;4.73;;
9536;SDS011;4807;48.024;11.726;2023-07-24T02:58:51;7.20;;;5.13;;
9536;SDS011;4807;48.024;11.726;2023-07-24T03:02:01;9.67;;;5.47;;
9536;SDS011;4807;48.024;11.726;2023-07-24T03:05:09;8.93;;;5.37;;
9536;SDS011;4807;48.024;11.726;2023-07-24T03:08:18;6.97;;;5.20;;
9536;SDS011;4807;48.024;11.726;2023-07-24T03:11:27;6.27;;;4.57;;
9536;SDS011;4807;48.024;11.726;2023-07-24T03:14:35;7.10;;;4.93;;
9536;SDS011;4807;48.024;11.726;2023-07-24T03:17:45;6.30;;;4.80;;
9536;SDS011;4807;48.024;11.726;2023-07-24T03:20:54;6.30;;;4.70;;
9536;SDS011;4807;48.024;11.726;2023-07-24T03:24:04;6.63;;;5.20;;
9536;SDS011;4807;48.024;11.726;2023-07-24T03:27:13;7.83;;;5.20;;
9536;SDS011;4807;48.024;11.726;2023-07-24T03:30:22;9.47;;;5.40;;
9536;SDS011;4807;48.024;11.726;2023-07-24T03:33:32;6.70;;;5.07;;
9536;SDS011;4807;48.024;11.726;2023-07-24T03:36:40;9.77;;;5.87;;
9536;SDS011;4807;48.024;11.726;2023-07-24T03:39:49;6.97;;;5.53;;
9536;SDS011;4807;48.024;11.726;2023-07-24T03:42:58;10.70;;;6.33;;
9536;SDS011;4807;48.024;11.726;2023-07-24T03:46:07;10.13;;;6.10;;
9536;SDS011;4807;48.024;11.726;2023-07-24T03:49:17;8.77;;;5.90;;
9536;SDS011;4807;48.024;11.726;2023-07-24T03:52:25;8.33;;;6.17;;
9536;SDS011;4807;48.024;11.726;2023-07-24T03:55:34;10.00;;;5.87;;
9536;SDS011;4807;48.024;11.726;2023-07-24T03:58:43;10.87;;;5.73;;
9536;SDS011;4807;48.024;11.726;2023-07-24T04:01:52;7.90;;;5.93;;
9536;SDS011;4807;48.024;11.726;2023-07-24T04:05:02;8.50;;;5.80;;
9536;SDS011;4807;48.024;11.726;2023-07-24T04:08:11;8.77;;;6.30;;
9536;SDS011;4807;48.024;11.726;2023-07-24T04:11:21;8.10;;;5.80;;
9536;SDS011;4807;48.024;11.726;2023-07-24T04:14:30;6.43;;;5.63;;
9536;SDS011;4807;48.024;11.726;2023-07-24T04:17:39;9.47;;;6.23;;
9536;SDS011;4807;48.024;11.726;2023-07-24T04:20:52;8.67;;;6.67;;
9536;SDS011;4807;48.024;11.726;2023-07-24T04:24:03;9.40;;;5.90;;
9536;SDS011;4807;48.024;11.726;2023-07-24T04:27:12;8.00;;;6.07;;
9536;SDS011;4807;48.024;11.726;2023-07-24T04:30:20;8.80;;;6.40;;
9536;SDS011;4807;48.024;11.726;2023-07-24T04:33:29;10.17;;;5.53;;
9536;SDS011;4807;48.024;11.726;2023-07-24T04:36:39;8.33;;;6.07;;
9536;SDS011;4807;48.024;11.726;2023-07-24T04:39:48;9.33;;;6.40;;
9536;SDS011;4807;48.024;11.726;2023-07-24T04:42:56;9.07;;;6.33;;
9536;SDS011;4807;48.024;11.726;2023-07-24T04:46:06;6.17;;;5.43;;
9536;SDS011;4807;48.024;11.726;2023-07-24T04:49:14;8.87;;;6.30;;
9536;SDS011;4807;48.024;11.726;2023-07-24T04:52:27;7.83;;;5.80;;
9536;SDS011;4807;48.024;11.726;2023-07-24T04:55:35;8.47;;;5.73;;
9536;SDS011;4807;48.024;11.726;2023-07-24T04:58:44;9.60;;;5.83;;
9536;SDS011;4807;48.024;11.726;2023-07-24T05:01:52;8.67;;;5.67;;
9536;SDS011;4807;48.024;11.726;2023-07-24T05:05:02;7.97;;;5.83;;
9536;SDS011;4807;48.024;11.726;2023-07-24T05:08:12;6.17;;;5.47;;
9536;SDS011;4807;48.024;11.726;2023-07-24T05:11:21;9.13;;;5.50;;
9536;SDS011;4807;48.024;11.726;2023-07-24T05:14:30;8.37;;;5.40;;
9536;SDS011;4807;48.024;11.726;2023-07-24T05:17:38;7.27;;;5.80;;
9536;SDS011;4807;48.024;11.726;2023-07-24T05:20:48;7.67;;;5.90;;
9536;SDS011;4807;48.024;11.726;2023-07-24T05:23:59;7.50;;;5.57;;
9536;SDS011;4807;48.024;11.726;2023-07-24T05:27:07;7.47;;;5.43;;
9536;SDS011;4807;48.024;11.726;2023-07-24T05:30:16;7.07;;;5.70;;
9536;SDS011;4807;48.024;11.726;2023-07-24T05:33:25;13.40;;;5.90;;
9536;SDS011;4807;48.024;11.726;2023-07-24T05:36:35;7.63;;;5.73;;
9536;SDS011;4807;48.024;11.726;2023-07-24T05:39:48;7.83;;;6.07;;
9536;SDS011;4807;48.024;11.726;2023-07-24T05:42:57;8.57;;;6.67;;
9536;SDS011;4807;48.024;11.726;2023-07-24T05:46:06;8.87;;;6.67;;
9536;SDS011;4807;48.024;11.726;2023-07-24T05:49:14;6.93;;;5.57;;
9536;SDS011;4807;48.024;11.726;2023-07-24T05:52:23;10.57;;;6.27;;
9536;SDS011;4807;48.024;11.726;2023-07-24T05:55:33;8.10;;;6.07;;
9536;SDS011;4807;48.024;11.726;2023-07-24T05:58:42;7.97;;;6.33;;
9536;SDS011;4807;48.024;11.726;2023-07-24T06:01:50;9.50;;;5.87;;
9536;SDS011;4807;48.024;11.726;2023-07-24T06:04:59;7.23;;;5.70;;
9536;SDS011;4807;48.024;11.726;2023-07-24T06:08:08;7.47;;;5.70;;
9536;SDS011;4807;48.024;11.726;2023-07-24T06:11:18;9.07;;;6.87;;
9536;SDS011;4807;48.024;11.726;2023-07-24T06:14:29;8.40;;;5.23;;
9536;SDS011;4807;48.024;11.726;2023-07-24T06:17:37;8.50;;;5.87;;
9536;SDS011;4807;48.024;11.726;2023-07-24T06:20:46;8.50;;;6.30;;
9536;SDS011;4807;48.024;11.726;2023-07-24T06:24:00;7.07;;;6.00;;
9536;SDS011;4807;48.024;11.726;2023-07-24T06:27:10;7.40;;;5.70;;
9536;SDS011;4807;48.024;11.726;2023-07-24T06:30:19;9.97;;;6.03;;
9536;SDS011;4807;48.024;11.726;2023-07-24T06:33:28;9.03;;;5.93;;
9536;SDS011;4807;48.024;11.726;2023-07-24T06:36:37;6.80;;;5.67;;
9536;SDS011;4807;48.024;11.726;2023-07-24T06:39:46;7.23;;;5.63;;
9536;SDS011;4807;48.024;11.726;2023-07-24T06:42:59;7.63;;;5.97;;
9536;SDS011;4807;48.024;11.726;2023-07-24T06:46:08;7.93;;;6.03;;
9536;SDS011;4807;48.024;11.726;2023-07-24T06:49:16;7.70;;;6.30;;
9536;SDS011;4807;48.024;11.726;2023-07-24T06:52:25;7.47;;;5.10;;
9536;SDS011;4807;48.024;11.726;2023-07-24T06:55:34;6.70;;;5.50;;
9536;SDS011;4807;48.024;11.726;2023-07-24T06:58:44;6.23;;;5.57;;
9536;SDS011;4807;48.024;11.726;2023-07-24T07:01:52;7.30;;;5.77;;
9536;SDS011;4807;48.024;11.726;2023-07-24T07:05:01;9.17;;;5.70;;
9536;SDS011;4807;48.024;11.726;2023-07-24T07:08:10;7.90;;;5.67;;
9536;SDS011;4807;48.024;11.726;2023-07-24T07:11:19;6.73;;;5.57;;
9536;SDS011;4807;48.024;11.726;2023-07-24T07:14:29;7.07;;;5.67;;
9536;SDS011;4807;48.024;11.726;2023-07-24T07:17:37;7.93;;;5.70;;
9536;SDS011;4807;48.024;11.726;2023-07-24T07:20:46;12.33;;;9.70;;
9536;SDS011;4807;48.024;11.726;2023-07-24T07:23:56;8.03;;;6.13;;
9536;SDS011;4807;48.024;11.726;2023-07-24T07:27:05;6.93;;;5.97;;
9536;SDS011;4807;48.024;11.726;2023-07-24T07:30:15;7.57;;;6.10;;
9536;SDS011;4807;48.024;11.726;2023-07-24T07:33:23;6.53;;;5.83;;
9536;SDS011;4807;48.024;11.726;2023-07-24T07:36:32;5.93;;;5.33;;
9536;SDS011;4807;48.024;11.726;2023-07-24T07:39:41;7.87;;;6.37;;
9536;SDS011;4807;48.024;11.726;2023-07-24T07:42:49;10.43;;;6.97;;
9536;SDS011;4807;48.024;11.726;2023-07-24T07:45:59;7.90;;;6.87;;
9536;SDS011;4807;48.024;11.726;2023-07-24T07:49:08;8.93;;;6.30;;
9536;SDS011;4807;48.024;11.726;2023-07-24T07:52:17;10.37;;;6.53;;
9536;SDS011;4807;48.024;11.726;2023-07-24T07:55:26;10.37;;;6.03;;
9536;SDS011;4807;48.024;11.726;2023-07-24T07:58:35;9.53;;;6.33;;
9536;SDS011;4807;48.024;11.726;2023-07-24T08:01:45;11.50;;;5.03;;
9536;SDS011;4807;48.024;11.726;2023-07-24T08:04:54;8.03;;;5.43;;
9536;SDS011;4807;48.024;11.726;2023-07-24T08:08:09;7.40;;;4.77;;
9536;SDS011;4807;48.024;11.726;2023-07-24T08:11:18;6.00;;;4.63;;
9536;SDS011;4807;48.024;11.726;2023-07-24T08:14:27;5.13;;;3.73;;
9536;SDS011;4807;48.024;11.726;2023-07-24T08:17:37;7.07;;;4.30;;
9536;SDS011;4807;48.024;11.726;2023-07-24T08:20:45;6.23;;;4.03;;
9536;SDS011;4807;48.024;11.726;2023-07-24T08:23:54;7.60;;;4.30;;
9536;SDS011;4807;48.024;11.726;2023-07-24T08:27:03;7.27;;;4.03;;
9536;SDS011;4807;48.024;11.726;2023-07-24T08:30:12;6.67;;;4.47;;
9536;SDS011;4807;48.024;11.726;2023-07-24T08:33:23;4.73;;;4.10;;
9536;SDS011;4807;48.024;11.726;2023-07-24T08:36:34;6.07;;;4.43;;
9536;SDS011;4807;48.024;11.726;2023-07-24T08:39:46;6.03;;;4.10;;
9536;SDS011;4807;48.024;11.726;2023-07-24T08:42:55;8.03;;;4.70;;
9536;SDS011;4807;48.024;11.726;2023-07-24T08:46:05;6.17;;;4.17;;
9536;SDS011;4807;48.024;11.726;2023-07-24T08:49:16;8.07;;;4.37;;
9536;SDS011;4807;48.024;11.726;2023-07-24T08:52:26;7.03;;;4.47;;
9536;SDS011;4807;48.024;11.726;2023-07-24T08:55:41;5.83;;;4.60;;
9536;SDS011;4807;48.024;11.726;2023-07-24T08:58:50;6.03;;;4.70;;
9536;SDS011;4807;48.024;11.726;2023-07-24T09:01:59;6.57;;;4.60;;
9536;SDS011;4807;48.024;11.726;2023-07-24T09:05:09;6.70;;;4.57;;
9536;SDS011;4807;48.024;11.726;2023-07-24T09:08:27;6.57;;;4.57;;
9536;SDS011;4807;48.024;11.726;2023-07-24T09:11:45;4.97;;;4.27;;
9536;SDS011;4807;48.024;11.726;2023-07-24T09:15:00;5.50;;;4.30;;
9536;SDS011;4807;48.024;11.726;2023-07-24T09:18:12;4.80;;;3.67;;
9536;SDS011;4807;48.024;11.726;2023-07-24T09:21:28;5.70;;;4.03;;
9536;SDS011;4807;48.024;11.726;2023-07-24T09:24:38;5.20;;;3.83;;
9536;SDS011;4807;48.024;11.726;2023-07-24T09:27:57;4.20;;;3.73;;
9536;SDS011;4807;48.024;11.726;2023-07-24T09:31:06;4.00;;;3.60;;
9536;SDS011;4807;48.024;11.726;2023-07-24T09:34:15;4.80;;;3.70;;
9536;SDS011;4807;48.024;11.726;2023-07-24T09:37:26;3.90;;;3.47;;
9536;SDS011;4807;48.024;11.726;2023-07-24T09:40:37;4.23;;;3.50;;
9536;SDS011;4807;48.024;11.726;2023-07-24T09:43:47;3.87;;;3.20;;
9536;SDS011;4807;48.024;11.726;2023-07-24T09:47:05;4.23;;;3.63;;
9536;SDS011;4807;48.024;11.726;2023-07-24T09:50:34;4.27;;;3.83;;
9536;SDS011;4807;48.024;11.726;2023-07-24T09:53:45;4.33;;;3.57;;
9536;SDS011;4807;48.024;11.726;2023-07-24T09:57:02;4.23;;;3.07;;
9536;SDS011;4807;48.024;11.726;2023-07-24T10:00:27;3.57;;;2.80;;
9536;SDS011;4807;48.024;11.726;2023-07-24T10:03:38;5.00;;;3.50;;
9536;SDS011;4807;48.024;11.726;2023-07-24T10:06:49;2.57;;;2.37;;
9536;SDS011;4807;48.024;11.726;2023-07-24T10:10:00;3.03;;;2.63;;
9536;SDS011;4807;48.024;11.726;2023-07-24T10:16:37;3.67;;;3.37;;
9536;SDS011;4807;48.024;11.726;2023-07-24T10:19:48;3.60;;;3.20;;
9536;SDS011;4807;48.024;11.726;2023-07-24T10:23:00;4.33;;;3.93;;
9536;SDS011;4807;48.024;11.726;2023-07-24T10:26:10;4.77;;;3.10;;
9536;SDS011;4807;48.024;11.726;2023-07-24T10:29:23;4.97;;;3.07;;
9536;SDS011;4807;48.024;11.726;2023-07-24T10:32:34;5.70;;;3.60;;
9536;SDS011;4807;48.024;11.726;2023-07-24T10:36:03;4.43;;;3.43;;
9536;SDS011;4807;48.024;11.726;2023-07-24T10:39:15;5.97;;;3.50;;
9536;SDS011;4807;48.024;11.726;2023-07-24T10:42:28;5.23;;;3.80;;
9536;SDS011;4807;48.024;11.726;2023-07-24T10:45:46;3.37;;;3.07;;
9536;SDS011;4807;48.024;11.726;2023-07-24T10:49:00;3.83;;;3.53;;
9536;SDS011;4807;48.024;11.726;2023-07-24T10:52:09;3.60;;;3.30;;
9536;SDS011;4807;48.024;11.726;2023-07-24T10:55:18;4.67;;;3.47;;
9536;SDS011;4807;48.024;11.726;2023-07-24T10:58:30;4.40;;;4.00;;
9536;SDS011;4807;48.024;11.726;2023-07-24T11:01:39;4.43;;;3.73;;
9536;SDS011;4807;48.024;11.726;2023-07-24T11:04:48;5.83;;;3.70;;
9536;SDS011;4807;48.024;11.726;2023-07-24T11:07:56;4.73;;;3.93;;
9536;SDS011;4807;48.024;11.726;2023-07-24T11:11:05;4.90;;;3.73;;
9536;SDS011;4807;48.024;11.726;2023-07-24T11:14:17;5.60;;;3.67;;
9536;SDS011;4807;48.024;11.726;2023-07-24T11:17:33;5.03;;;3.97;;
9536;SDS011;4807;48.024;11.726;2023-07-24T11:20:44;5.20;;;4.40;;
9536;SDS011;4807;48.024;11.726;2023-07-24T11:23:54;5.63;;;3.37;;
9536;SDS011;4807;48.024;11.726;2023-07-24T11:27:08;3.53;;;3.23;;
9536;SDS011;4807;48.024;11.726;2023-07-24T11:30:21;4.77;;;3.73;;
9536;SDS011;4807;48.024;11.726;2023-07-24T11:33:30;3.77;;;3.37;;
9536;SDS011;4807;48.024;11.726;2023-07-24T11:36:38;4.83;;;3.73;;
9536;SDS011;4807;48.024;11.726;2023-07-24T11:39:57;5.23;;;4.10;;
9536;SDS011;4807;48.024;11.726;2023-07-24T11:43:17;3.57;;;3.27;;
9536;SDS011;4807;48.024;11.726;2023-07-24T11:46:29;4.47;;;4.00;;
9536;SDS011;4807;48.024;11.726;2023-07-24T11:49:39;4.97;;;4.43;;
9536;SDS011;4807;48.024;11.726;2023-07-24T11:52:53;6.17;;;4.60;;
9536;SDS011;4807;48.024;11.726;2023-07-24T11:56:12;5.67;;;4.43;;
9536;SDS011;4807;48.024;11.726;2023-07-24T11:59:22;4.90;;;4.30;;
9536;SDS011;4807;48.024;11.726;2023-07-24T12:02:34;4.97;;;4.07;;
9536;SDS011;4807;48.024;11.726;2023-07-24T12:05:43;5.43;;;4.17;;
9536;SDS011;4807;48.024;11.726;2023-07-24T12:09:01;5.00;;;4.10;;
9536;SDS011;4807;48.024;11.726;2023-07-24T12:12:11;4.60;;;4.10;;
9536;SDS011;4807;48.024;11.726;2023-07-24T12:15:22;4.93;;;4.17;;
9536;SDS011;4807;48.024;11.726;2023-07-24T12:18:34;4.20;;;3.80;;
9536;SDS011;4807;48.024;11.726;2023-07-24T12:21:42;5.40;;;3.43;;
9536;SDS011;4807;48.024;11.726;2023-07-24T12:24:51;5.60;;;4.53;;
9536;SDS011;4807;48.024;11.726;2023-07-24T12:27:59;4.63;;;4.10;;
9536;SDS011;4807;48.024;11.726;2023-07-24T12:31:09;5.50;;;3.97;;
9536;SDS011;4807;48.024;11.726;2023-07-24T12:34:19;6.40;;;4.50;;
9536;SDS011;4807;48.024;11.726;2023-07-24T12:37:28;6.50;;;5.10;;
9536;SDS011;4807;48.024;11.726;2023-07-24T12:40:37;5.97;;;4.70;;
9536;SDS011;4807;48.024;11.726;2023-07-24T12:43:45;7.40;;;3.40;;
9536;SDS011;4807;48.024;11.726;2023-07-24T12:46:54;10.00;;;5.90;;
9536;SDS011;4807;48.024;11.726;2023-07-24T12:50:05;5.87;;;5.07;;
9536;SDS011;4807;48.024;11.726;2023-07-24T12:53:13;8.90;;;4.37;;
9536;SDS011;4807;48.024;11.726;2023-07-24T12:56:27;6.53;;;4.03;;
9536;SDS011;4807;48.024;11.726;2023-07-24T12:59:35;7.68;;;4.80;;
9536;SDS011;4807;48.024;11.726;2023-07-24T13:02:44;5.90;;;3.87;;
9536;SDS011;4807;48.024;11.726;2023-07-24T13:05:54;5.13;;;3.90;;
9536;SDS011;4807;48.024;11.726;2023-07-24T13:09:03;5.53;;;4.17;;
9536;SDS011;4807;48.024;11.726;2023-07-24T13:12:12;4.97;;;3.97;;
9536;SDS011;4807;48.024;11.726;2023-07-24T13:15:21;6.90;;;4.03;;
9536;SDS011;4807;48.024;11.726;2023-07-24T13:18:31;5.30;;;3.97;;
9536;SDS011;4807;48.024;11.726;2023-07-24T13:21:41;4.87;;;3.80;;
9536;SDS011;4807;48.024;11.726;2023-07-24T13:24:52;6.27;;;4.30;;
9536;SDS011;4807;48.024;11.726;2023-07-24T13:28:00;10.30;;;4.57;;
9536;SDS011;4807;48.024;11.726;2023-07-24T13:31:13;7.23;;;4.60;;
9536;SDS011;4807;48.024;11.726;2023-07-24T13:34:23;6.43;;;4.03;;
9536;SDS011;4807;48.024;11.726;2023-07-24T13:37:33;6.13;;;4.63;;
9536;SDS011;4807;48.024;11.726;2023-07-24T13:40:42;6.00;;;4.40;;
9536;SDS011;4807;48.024;11.726;2023-07-24T13:43:50;7.40;;;4.57;;
9536;SDS011;4807;48.024;11.726;2023-07-24T13:46:59;5.83;;;4.10;;
9536;SDS011;4807;48.024;11.726;2023-07-24T13:50:08;4.77;;;4.03;;
9536;SDS011;4807;48.024;11.726;2023-07-24T13:53:18;4.80;;;3.80;;
9536;SDS011;4807;48.024;11.726;2023-07-24T13:56:28;4.40;;;3.63;;
9536;SDS011;4807;48.024;11.726;2023-07-24T13:59:40;4.60;;;3.60;;
9536;SDS011;4807;48.024;11.726;2023-07-24T14:02:49;4.90;;;3.63;;
9536;SDS011;4807;48.024;11.726;2023-07-24T14:05:57;4.23;;;3.60;;
9536;SDS011;4807;48.024;11.726;2023-07-24T14:09:07;3.50;;;3.20;;
9536;SDS011;4807;48.024;11.726;2023-07-24T14:12:16;3.70;;;3.30;;
9536;SDS011;4807;48.024;11.726;2023-07-24T14:15:24;3.87;;;3.13;;
9536;SDS011;4807;48.024;11.726;2023-07-24T14:18:33;4.90;;;4.03;;
9536;SDS011;4807;48.024;11.726;2023-07-24T14:21:41;4.63;;;3.53;;
9536;SDS011;4807;48.024;11.726;2023-07-24T14:24:51;4.73;;;3.73;;
9536;SDS011;4807;48.024;11.726;2023-07-24T14:28:00;4.00;;;3.60;;
9536;SDS011;4807;48.024;11.726;2023-07-24T14:31:08;4.37;;;3.53;;
9536;SDS011;4807;48.024;11.726;2023-07-24T14:34:17;3.70;;;3.40;;
9536;SDS011;4807;48.024;11.726;2023-07-24T14:37:26;4.40;;;3.60;;
9536;SDS011;4807;48.024;11.726;2023-07-24T14:40:35;6.20;;;4.23;;
9536;SDS011;4807;48.024;11.726;2023-07-24T14:43:46;4.33;;;3.13;;
9536;SDS011;4807;48.024;11.726;2023-07-24T14:46:54;4.70;;;3.10;;
9536;SDS011;4807;48.024;11.726;2023-07-24T14:50:03;5.03;;;3.33;;
9536;SDS011;4807;48.024;11.726;2023-07-24T14:53:12;3.80;;;3.40;;
9536;SDS011;4807;48.024;11.726;2023-07-24T14:56:22;3.20;;;2.70;;
9536;SDS011;4807;48.024;11.726;2023-07-24T14:59:39;3.63;;;3.10;;
9536;SDS011;4807;48.024;11.726;2023-07-24T15:02:47;3.33;;;2.63;;
9536;SDS011;4807;48.024;11.726;2023-07-24T15:05:56;2.57;;;2.30;;
9536;SDS011;4807;48.024;11.726;2023-07-24T15:09:10;3.40;;;2.63;;
9536;SDS011;4807;48.024;11.726;2023-07-24T15:12:20;3.60;;;2.97;;
9536;SDS011;4807;48.024;11.726;2023-07-24T15:15:28;3.40;;;2.93;;
9536;SDS011;4807;48.024;11.726;2023-07-24T15:18:37;2.97;;;2.67;;
9536;SDS011;4807;48.024;11.726;2023-07-24T15:21:46;3.00;;;2.70;;
9536;SDS011;4807;48.024;11.726;2023-07-24T15:24:54;2.70;;;2.23;;
9536;SDS011;4807;48.024;11.726;2023-07-24T15:28:04;3.87;;;2.50;;
9536;SDS011;4807;48.024;11.726;2023-07-24T15:31:13;3.43;;;2.50;;
9536;SDS011;4807;48.024;11.726;2023-07-24T15:34:21;3.33;;;2.40;;
9536;SDS011;4807;48.024;11.726;2023-07-24T15:37:31;3.83;;;2.40;;
9536;SDS011;4807;48.024;11.726;2023-07-24T15:40:39;3.47;;;2.60;;
9536;SDS011;4807;48.024;11.726;2023-07-24T15:43:49;2.87;;;2.50;;
9536;SDS011;4807;48.024;11.726;2023-07-24T15:46:58;3.17;;;2.53;;
9536;SDS011;4807;48.024;11.726;2023-07-24T15:50:07;3.07;;;2.50;;
9536;SDS011;4807;48.024;11.726;2023-07-24T15:53:15;3.20;;;2.50;;
9536;SDS011;4807;48.024;11.726;2023-07-24T15:56:24;2.57;;;2.23;;
9536;SDS011;4807;48.024;11.726;2023-07-24T15:59:34;2.63;;;2.43;;
9536;SDS011;4807;48.024;11.726;2023-07-24T16:02:42;3.97;;;2.60;;
9536;SDS011;4807;48.024;11.726;2023-07-24T16:05:51;4.07;;;2.30;;
9536;SDS011;4807;48.024;11.726;2023-07-24T16:09:01;5.60;;;3.37;;
9536;SDS011;4807;48.024;11.726;2023-07-24T16:12:09;2.83;;;2.63;;
9536;SDS011;4807;48.024;11.726;2023-07-24T16:15:19;3.07;;;2.47;;
9536;SDS011;4807;48.024;11.726;2023-07-24T16:18:33;3.43;;;2.90;;
9536;SDS011;4807;48.024;11.726;2023-07-24T16:21:43;2.30;;;2.10;;
9536;SDS011;4807;48.024;11.726;2023-07-24T16:24:52;3.53;;;3.10;;
9536;SDS011;4807;48.024;11.726;2023-07-24T16:28:01;2.83;;;2.57;;
9536;SDS011;4807;48.024;11.726;2023-07-24T16:31:11;3.67;;;2.70;;
9536;SDS011;4807;48.024;11.726;2023-07-24T16:34:21;2.57;;;2.20;;
9536;SDS011;4807;48.024;11.726;2023-07-24T16:37:30;4.23;;;2.87;;
9536;SDS011;4807;48.024;11.726;2023-07-24T16:40:39;4.10;;;2.67;;
9536;SDS011;4807;48.024;11.726;2023-07-24T16:43:48;3.87;;;3.00;;
9536;SDS011;4807;48.024;11.726;2023-07-24T16:59:57;4.30;;;3.37;;
9536;SDS011;4807;48.024;11.726;2023-07-24T17:03:08;5.13;;;3.27;;
9536;SDS011;4807;48.024;11.726;2023-07-24T17:07:03;3.70;;;3.13;;
9536;SDS011;4807;48.024;11.726;2023-07-24T17:10:12;4.57;;;3.03;;
9536;SDS011;4807;48.024;11.726;2023-07-24T17:13:24;3.30;;;2.77;;
9536;SDS011;4807;48.024;11.726;2023-07-24T17:16:33;5.50;;;2.47;;
9536;SDS011;4807;48.024;11.726;2023-07-24T17:19:42;3.00;;;2.67;;
9536;SDS011;4807;48.024;11.726;2023-07-24T17:22:51;2.93;;;2.47;;
9536;SDS011;4807;48.024;11.726;2023-07-24T17:26:00;4.00;;;2.27;;
9536;SDS011;4807;48.024;11.726;2023-07-24T17:29:10;3.77;;;2.30;;
9536;SDS011;4807;48.024;11.726;2023-07-24T17:32:19;2.93;;;2.10;;
9536;SDS011;4807;48.024;11.726;2023-07-24T17:35:28;4.17;;;2.37;;
9536;SDS011;4807;48.024;11.726;2023-07-24T17:38:37;3.20;;;2.67;;
9536;SDS011;4807;48.024;11.726;2023-07-24T17:41:46;2.47;;;2.17;;
9536;SDS011;4807;48.024;11.726;2023-07-24T17:44:56;2.93;;;2.30;;
9536;SDS011;4807;48.024;11.726;2023-07-24T17:48:05;3.17;;;2.03;;
9536;SDS011;4807;48.024;11.726;2023-07-24T17:51:14;5.17;;;2.33;;
9536;SDS011;4807;48.024;11.726;2023-07-24T17:54:23;2.50;;;2.30;;
9536;SDS011;4807;48.024;11.726;2023-07-24T17:57:32;3.77;;;3.03;;
9536;SDS011;4807;48.024;11.726;2023-07-24T18:00:43;4.07;;;3.10;;
9536;SDS011;4807;48.024;11.726;2023-07-24T18:03:52;3.50;;;2.87;;
9536;SDS011;4807;48.024;11.726;2023-07-24T18:07:02;3.40;;;2.60;;
9536;SDS011;4807;48.024;11.726;2023-07-24T18:10:11;4.37;;;2.73;;
9536;SDS011;4807;48.024;11.726;2023-07-24T18:13:20;3.47;;;3.17;;
9536;SDS011;4807;48.024;11.726;2023-07-24T18:16:31;6.43;;;3.30;;
9536;SDS011;4807;48.024;11.726;2023-07-24T18:19:39;4.37;;;2.73;;
9536;SDS011;4807;48.024;11.726;2023-07-24T18:22:53;3.60;;;3.30;;
9536;SDS011;4807;48.024;11.726;2023-07-24T18:26:02;3.63;;;3.13;;
9536;SDS011;4807;48.024;11.726;2023-07-24T18:29:11;5.97;;;3.17;;
9536;SDS011;4807;48.024;11.726;2023-07-24T18:32:22;4.53;;;3.10;;
9536;SDS011;4807;48.024;11.726;2023-07-24T18:35:31;6.00;;;3.53;;
9536;SDS011;4807;48.024;11.726;2023-07-24T18:38:40;3.20;;;2.90;;
9536;SDS011;4807;48.024;11.726;2023-07-24T18:42:03;4.17;;;3.57;;
9536;SDS011;4807;48.024;11.726;2023-07-24T18:45:15;4.50;;;3.63;;
9536;SDS011;4807;48.024;11.726;2023-07-24T18:48:26;5.33;;;3.63;;
9536;SDS011;4807;48.024;11.726;2023-07-24T18:51:34;4.43;;;3.23;;
9536;SDS011;4807;48.024;11.726;2023-07-24T18:54:43;4.90;;;3.37;;
9536;SDS011;4807;48.024;11.726;2023-07-24T18:57:52;6.07;;;3.50;;
9536;SDS011;4807;48.024;11.726;2023-07-24T19:01:00;4.23;;;3.67;;
9536;SDS011;4807;48.024;11.726;2023-07-24T19:04:12;4.03;;;3.50;;
9536;SDS011;4807;48.024;11.726;2023-07-24T19:07:22;4.90;;;3.10;;
9536;SDS011;4807;48.024;11.726;2023-07-24T19:10:36;5.30;;;3.80;;
9536;SDS011;4807;48.024;11.726;2023-07-24T19:14:04;4.70;;;3.50;;
9536;SDS011;4807;48.024;11.726;2023-07-24T19:17:20;4.27;;;3.87;;
9536;SDS011;4807;48.024;11.726;2023-07-24T19:21:29;4.50;;;3.80;;
9536;SDS011;4807;48.024;11.726;2023-07-24T19:25:28;4.03;;;3.57;;
9536;SDS011;4807;48.024;11.726;2023-07-24T19:28:37;4.93;;;3.87;;
9536;SDS011;4807;48.024;11.726;2023-07-24T19:31:50;5.17;;;3.67;;
9536;SDS011;4807;48.024;11.726;2023-07-24T19:34:59;4.43;;;3.57;;
9536;SDS011;4807;48.024;11.726;2023-07-24T19:38:10;3.63;;;3.10;;
9536;SDS011;4807;48.024;11.726;2023-07-24T19:41:19;5.00;;;3.70;;